Nearby Weather Observations


KTIP - Rantoul, Illinois, USA
Distance from station: ENE 12mi, 19km
Updated: Mon, 22-Oct-2018 3:35am CDT
Clear
Clear
 Wind from SW
Wind: SW 14 mph , 22 km/h
Temperature: 43°F , 6°C
Wind Chill: 36°F , 2°C
Dew Point: 32°F , 0°C
Humidity: 66%
Barometer: 30.12 inHg , 1020 hPa
Clouds: Clear
Visibility: 10 miles , 16 km
2018/10/22 08:35 KTIP 220835Z AUTO 22012KT 10SM CLR 06/00 A3012 RMK AO2 T00571003
KCMI - Champaign/Urbana, Illinois, USA
Distance from station: SSE 14mi, 22km
Updated: Mon, 22-Oct-2018 2:53am CDT
Clear
Clear
 Wind from SSW
Wind: SSW 8 mph , 13 km/h
Temperature: 36°F , 2°C
Wind Chill: 30°F , -1°C
Dew Point: 30°F , -1°C
Humidity: 81%
Barometer: 30.14 inHg , 1020.7 hPa
Clouds: Clear
Visibility: 10 miles , 16 km
2018/10/22 07:53 KCMI 220753Z AUTO 20007KT 10SM CLR 02/M01 A3014 RMK AO2 SLP208 T00221011
 
KBMI - Bloomington/Norm, Illinois, USA
Distance from station: WNW 34mi, 55km
Updated: Mon, 22-Oct-2018 2:56am CDT
Clear
Clear
 Wind from SSW
Wind: SSW 14 mph , 22 km/h
Temperature: 39°F , 4°C
Wind Chill: 31°F , -1°C
Dew Point: 28°F , -2°C
Humidity: 65%
Barometer: 30.11 inHg , 1019.6 hPa
Clouds: Clear
Visibility: 10 miles , 16 km
2018/10/22 07:56 KBMI 220756Z AUTO 21012KT 10SM CLR 04/M02 A3011 RMK AO2 SLP224 T00441017
KDEC - Decatur, Illinois, USA
Distance from station: SW 37mi, 60km
Updated: Mon, 22-Oct-2018 2:54am CDT
Clear
Clear
 Wind from SW
Wind: SW 12 mph , 19 km/h
Temperature: 41°F , 5°C
Wind Chill: 34°F , 1°C
Dew Point: 28°F , -2°C
Humidity: 61%
Barometer: 30.15 inHg , 1021 hPa
Clouds: Clear
Visibility: 10 miles , 16 km
2018/10/22 07:54 KDEC 220754Z AUTO 22010KT 10SM CLR 05/M02 A3015 RMK AO2 SLP211 T00501022
 
KDNV - Danville, Illinois, USA
Distance from station: E 40mi, 65km
Updated: Mon, 22-Oct-2018 3:35am CDT
Clear
Clear
 Wind from SSW
Wind: SSW 10 mph , 17 km/h
Temperature: 37°F , 3°C
Wind Chill: 30°F , -1°C
Dew Point: 30°F , -1°C
Humidity: 75%
Barometer: 30.11 inHg , 1019.6 hPa
Clouds: Clear
Visibility: 10 miles , 16 km
2018/10/22 08:35 KDNV 220835Z AUTO 21009KT 10SM CLR 03/M01 A3011 RMK AO2 T00331015
KAAA - Lincoln, Illinois, USA
Distance from station: W 52mi, 83km
Updated: Mon, 22-Oct-2018 3:35am CDT
Clear
Clear
 Wind from S
Wind: S 5 mph , 7 km/h
Temperature: 39°F , 4°C
Wind Chill: 35°F , 2°C
Dew Point: 32°F , 0°C
Humidity: 75%
Barometer: 30.12 inHg , 1020 hPa
Clouds: Clear
Visibility: 10 miles , 16 km
2018/10/22 08:35 KAAA 220835Z AUTO 19004KT 10SM CLR 04/00 A3012 RMK AO2 T00400001
 
KMTO - Mattoon/Charlest, Illinois, USA
Distance from station: S 52mi, 84km
Updated: Mon, 22-Oct-2018 2:53am CDT
Clear
Clear
 Wind from S
Wind: S 10 mph , 17 km/h
Temperature: 39°F , 4°C
Wind Chill: 32°F , 0°C
Dew Point: 28°F , -2°C
Humidity: 65%
Barometer: 30.15 inHg , 1021 hPa
Clouds: Clear
Visibility: 10 miles , 16 km
2018/10/22 07:53 KMTO 220753Z AUTO 19009KT 10SM CLR 04/M02 A3015 RMK AO2 SLP214 T00441022 $
KSPI - Springfield, Illinois, USA
Distance from station: WSW 74mi, 120km
Updated: Mon, 22-Oct-2018 2:52am CDT
Clear
Clear
 Wind from SSW
Wind: SSW 9 mph , 15 km/h
Temperature: 43°F , 6°C
Wind Chill: 38°F , 3°C
Dew Point: 32°F , 0°C
Humidity: 66%
Barometer: 30.13 inHg , 1020.3 hPa
Clouds: Clear
Visibility: 10 miles , 16 km
2018/10/22 07:52 KSPI 220752Z AUTO 21008KT 10SM CLR 06/00 A3013 RMK AO2 SLP205 T00610000 $
 
KLAF - Lafayette, Indiana, USA
Distance from station: E 76mi, 123km
Updated: Mon, 22-Oct-2018 2:54am CDT
Clear
Clear
 Wind from SSW
Wind: SSW 3 mph , 6 km/h
Temperature: 37°F , 3°C
Dew Point: 27°F , -3°C
Humidity: 65%
Barometer: 30.14 inHg , 1020.7 hPa
Clouds: Clear
Visibility: 10 miles , 16 km
2018/10/22 07:54 KLAF 220754Z AUTO 21003KT 10SM CLR 03/M03 A3014 RMK AO2 SLP208 T00281028
KPIA - Peoria, Illinois, USA
Distance from station: WNW 76mi, 123km
Updated: Mon, 22-Oct-2018 2:54am CDT
Clear
Clear
 Wind from SSW
Wind: SSW 6 mph , 9 km/h
Temperature: 37°F , 3°C
Wind Chill: 32°F , 0°C
Dew Point: 30°F , -1°C
Humidity: 75%
Barometer: 30.09 inHg , 1019 hPa
Clouds: Clear
Visibility: 10 miles , 16 km
2018/10/22 07:54 KPIA 220754Z AUTO 20005KT 10SM CLR 03/M01 A3009 RMK AO2 SLP193 T00331011
 
KHUF - Terre Haute, Indiana, USA
Distance from station: SE 77mi, 124km
Updated: Mon, 22-Oct-2018 2:53am CDT
Light snow, Clear
Light snow, Clear
 Wind from S
Wind: S 8 mph , 13 km/h
Temperature: 39°F , 4°C
Wind Chill: 33°F , 1°C
Dew Point: 28°F , -2°C
Humidity: 65%
Barometer: 30.19 inHg , 1022.4 hPa
Summary: Light Snow
Clouds: Clear
Visibility: 9 miles , 14 km
2018/10/22 07:53 KHUF 220753Z 19007KT 9SM -SN CLR 04/M02 A3019 RMK AO2 SNB25 SLP226 P0000 T00391022
K1H2 - Effingham, Illinois, USA
Distance from station: S 80mi, 129km
Updated: Mon, 22-Oct-2018 3:35am CDT
Clear
Clear
 Wind from SSE
Wind: SSE 6 mph , 9 km/h
Temperature: 39°F , 4°C
Wind Chill: 35°F , 2°C
Dew Point: 32°F , 0°C
Humidity: 75%
Barometer: 30.20 inHg , 1022.7 hPa
Clouds: Clear
Visibility: 10 miles , 16 km
2018/10/22 08:35 K1H2 220835Z AUTO 16005KT 10SM CLR 04/00 A3020 RMK AO2 T00411005
 
KIND - Indianapolis, Indiana, USA
Distance from station: ESE 117mi, 133km
Updated: Mon, 22-Oct-2018 2:54am CDT
Clear
Clear
 Wind from S
Wind: S 6 mph , 9 km/h
Temperature: 36°F , 2°C
Wind Chill: 31°F , -1°C
Dew Point: 27°F , -3°C
Humidity: 70%
Barometer: 30.18 inHg , 1022 hPa
Clouds: Clear
Visibility: 10 miles , 16 km
2018/10/22 07:54 KIND 220754Z 18005KT 10SM CLR 02/M03 A3018 RMK AO2 SLP223 T00171028
KORD - Chicago O'hare, Illinois, USA
Distance from station: N 126mi, 203km
Updated: Mon, 22-Oct-2018 2:51am CDT
Few Clouds
Few Clouds
 Wind from SW
Wind: SW 6 mph , 9 km/h
Temperature: 39°F , 4°C
Wind Chill: 35°F , 2°C
Dew Point: 27°F , -3°C
Humidity: 61%
Barometer: 30.05 inHg , 1017.6 hPa
Clouds: Few Clouds
Visibility: 10 miles , 16 km
Cloud details: Few Clouds 25000 ft
2018/10/22 07:51 KORD 220751Z 22005KT 10SM FEW250 04/M03 A3005 RMK AO2 SLP180 T00441028
 
KSTL - St. Louis, Missouri, USA
Distance from station: SW 150mi, 185km
Updated: Mon, 22-Oct-2018 2:51am CDT
Mostly cloudy
Mostly cloudy
 Wind from SSW
Wind: SSW 5 mph , 7 km/h
Temperature: 46°F , 8°C
Wind Chill: 44°F , 7°C
Dew Point: 30°F , -1°C
Humidity: 53%
Barometer: 30.17 inHg , 1021.7 hPa
Clouds: Mostly cloudy
Visibility: 10 miles , 16 km
Cloud details: Mostly cloudy 25000 ft
2018/10/22 07:51 KSTL 220751Z 20004KT 10SM BKN250 08/M01 A3017 RMK AO2 SLP219 T00781006